This is the latest recevied weather packets stored in our database for station/object K4KMJ. If no packets are shown the sender has not sent any weather packets the latest 10 day(s).
| Time | Temp. | Humidity | Pressure | Rain* | Wind** | Luminosity | Snow |
|---|---|---|---|---|---|---|---|
| 1777300129 | 26.11° C | 85% | 1018.8 hPa | 0 mm | - | 699 W/m² | - |
| 1777299825 | 26.11° C | 85% | 1018.7 hPa | 0 mm | - | 134 W/m² | - |
| 1777299523 | 26.11° C | 86% | 1018.7 hPa | 0 mm | - | 162 W/m² | - |
| 1777299221 | 25° C | 86% | 1018.4 hPa | 0 mm | - | 598 W/m² | - |
| 1777298918 | 25° C | 86% | 1018.4 hPa | 0 mm | - | 609 W/m² | - |
| 1777298615 | 25.56° C | 86% | 1018.3 hPa | 0 mm | - | 214 W/m² | - |
| 1777298311 | 26.11° C | 86% | 1018.2 hPa | 0 mm | - | 136 W/m² | - |
| 1777298007 | 25.56° C | 87% | 1018.1 hPa | 0 mm | - | 571 W/m² | - |
| 1777297702 | 26.11° C | 88% | 1018 hPa | 0 mm | - | 551 W/m² | - |
| 1777297401 | 25.56° C | 89% | 1018.1 hPa | 0 mm | - | 544 W/m² | - |
| 1777297097 | 26.11° C | 90% | 1018 hPa | 0 mm | - | 482 W/m² | - |
| 1777296794 | 25.56° C | 92% | 1018.1 hPa | 0 mm | - | 469 W/m² | - |
| 1777296490 | 25.56° C | 93% | 1017.9 hPa | 0 mm | - | 341 W/m² | - |
| 1777296185 | 25.56° C | 95% | 1017.8 hPa | 0 mm | - | 393 W/m² | - |
| 1777295882 | 25° C | 96% | 1017.9 hPa | 0 mm | - | 385 W/m² | - |
| 1777295580 | 24.44° C | 97% | 1017.7 hPa | 0 mm | - | 366 W/m² | - |
| 1777295276 | 24.44° C | 98% | 1017.8 hPa | 0 mm | - | 332 W/m² | - |
| 1777294975 | 24.44° C | 99% | 1017.8 hPa | 0 mm | - | 305 W/m² | - |
| 1777294670 | 24.44° C | 99% | 1017.6 hPa | 0 mm | - | 288 W/m² | - |
| 1777294366 | 24.44° C | 99% | 1017.7 hPa | 0 mm | - | 276 W/m² | - |
| 1777294063 | 23.89° C | 99% | 1017.7 hPa | 0 mm | - | 260 W/m² | - |
| 1777293760 | 23.89° C | 99% | 1017.6 hPa | 0 mm | - | 248 W/m² | - |
| 1777293454 | 23.89° C | 99% | 1017.5 hPa | 0 mm | - | 238 W/m² | - |
| 1777293151 | 23.89° C | 99% | 1017.6 hPa | 0 mm | - | 219 W/m² | - |
| 1777292849 | 23.33° C | 99% | 1017.3 hPa | 0 mm | - | 206 W/m² | - |
* Rain latest hour (hover to see other rain measurements)
** Current wind speed in m/s (hover to see current wind gust speed)